sensor_id;sensor_type;location;lat;lon;timestamp;P1;durP1;ratioP1;P2;durP2;ratioP2
15699;SDS011;7950;42.744;23.174;2023-04-21T00:01:35;10.17;;;8.20;;
15699;SDS011;7950;42.744;23.174;2023-04-21T00:04:04;10.27;;;7.77;;
15699;SDS011;7950;42.744;23.174;2023-04-21T00:06:35;14.13;;;8.53;;
15699;SDS011;7950;42.744;23.174;2023-04-21T00:09:05;11.67;;;7.90;;
15699;SDS011;7950;42.744;23.174;2023-04-21T00:11:38;10.57;;;8.17;;
15699;SDS011;7950;42.744;23.174;2023-04-21T00:14:07;9.53;;;8.53;;
15699;SDS011;7950;42.744;23.174;2023-04-21T00:16:35;11.97;;;8.17;;
15699;SDS011;7950;42.744;23.174;2023-04-21T00:19:04;11.47;;;9.13;;
15699;SDS011;7950;42.744;23.174;2023-04-21T00:21:33;11.63;;;8.57;;
15699;SDS011;7950;42.744;23.174;2023-04-21T00:24:02;10.50;;;7.73;;
15699;SDS011;7950;42.744;23.174;2023-04-21T00:26:33;10.93;;;7.77;;
15699;SDS011;7950;42.744;23.174;2023-04-21T00:29:02;9.37;;;7.80;;
15699;SDS011;7950;42.744;23.174;2023-04-21T00:31:30;9.80;;;7.70;;
15699;SDS011;7950;42.744;23.174;2023-04-21T00:33:59;9.63;;;8.17;;
15699;SDS011;7950;42.744;23.174;2023-04-21T00:36:27;12.37;;;8.20;;
15699;SDS011;7950;42.744;23.174;2023-04-21T00:39:01;10.43;;;7.97;;
15699;SDS011;7950;42.744;23.174;2023-04-21T00:41:31;8.23;;;7.43;;
15699;SDS011;7950;42.744;23.174;2023-04-21T00:44:02;10.30;;;8.17;;
15699;SDS011;7950;42.744;23.174;2023-04-21T00:46:33;13.13;;;8.07;;
15699;SDS011;7950;42.744;23.174;2023-04-21T00:49:04;9.73;;;8.73;;
15699;SDS011;7950;42.744;23.174;2023-04-21T00:54:28;10.13;;;8.20;;
15699;SDS011;7950;42.744;23.174;2023-04-21T00:56:58;9.63;;;7.80;;
15699;SDS011;7950;42.744;23.174;2023-04-21T00:59:43;9.97;;;8.00;;
15699;SDS011;7950;42.744;23.174;2023-04-21T01:02:13;8.73;;;7.83;;
15699;SDS011;7950;42.744;23.174;2023-04-21T01:04:42;10.30;;;7.73;;
15699;SDS011;7950;42.744;23.174;2023-04-21T01:07:11;11.00;;;8.60;;
15699;SDS011;7950;42.744;23.174;2023-04-21T01:09:39;9.40;;;8.40;;
15699;SDS011;7950;42.744;23.174;2023-04-21T01:12:10;11.23;;;8.30;;
15699;SDS011;7950;42.744;23.174;2023-04-21T01:14:39;11.43;;;8.77;;
15699;SDS011;7950;42.744;23.174;2023-04-21T01:17:08;13.43;;;9.23;;
15699;SDS011;7950;42.744;23.174;2023-04-21T01:19:37;13.23;;;9.40;;
15699;SDS011;7950;42.744;23.174;2023-04-21T01:22:10;12.00;;;8.40;;
15699;SDS011;7950;42.744;23.174;2023-04-21T01:24:41;12.33;;;8.70;;
15699;SDS011;7950;42.744;23.174;2023-04-21T01:27:13;11.50;;;8.43;;
15699;SDS011;7950;42.744;23.174;2023-04-21T01:29:45;12.87;;;9.10;;
15699;SDS011;7950;42.744;23.174;2023-04-21T01:32:17;12.83;;;9.37;;
15699;SDS011;7950;42.744;23.174;2023-04-21T01:34:49;11.90;;;8.73;;
15699;SDS011;7950;42.744;23.174;2023-04-21T01:37:33;14.20;;;9.27;;
15699;SDS011;7950;42.744;23.174;2023-04-21T01:40:02;13.03;;;9.23;;
15699;SDS011;7950;42.744;23.174;2023-04-21T01:42:35;14.07;;;8.70;;
15699;SDS011;7950;42.744;23.174;2023-04-21T01:45:06;16.47;;;9.73;;
15699;SDS011;7950;42.744;23.174;2023-04-21T01:47:35;11.80;;;9.37;;
15699;SDS011;7950;42.744;23.174;2023-04-21T01:50:04;12.17;;;8.97;;
15699;SDS011;7950;42.744;23.174;2023-04-21T01:52:36;13.27;;;9.50;;
15699;SDS011;7950;42.744;23.174;2023-04-21T01:55:05;12.27;;;9.03;;
15699;SDS011;7950;42.744;23.174;2023-04-21T01:57:34;14.13;;;9.60;;
15699;SDS011;7950;42.744;23.174;2023-04-21T02:00:03;11.43;;;9.53;;
15699;SDS011;7950;42.744;23.174;2023-04-21T02:02:34;13.60;;;9.77;;
15699;SDS011;7950;42.744;23.174;2023-04-21T02:05:08;12.53;;;10.20;;
15699;SDS011;7950;42.744;23.174;2023-04-21T02:07:38;12.23;;;9.70;;
15699;SDS011;7950;42.744;23.174;2023-04-21T02:10:06;16.27;;;11.07;;
15699;SDS011;7950;42.744;23.174;2023-04-21T02:12:36;14.60;;;9.97;;
15699;SDS011;7950;42.744;23.174;2023-04-21T02:15:05;14.50;;;10.17;;
15699;SDS011;7950;42.744;23.174;2023-04-21T02:17:35;13.97;;;10.57;;
15699;SDS011;7950;42.744;23.174;2023-04-21T02:20:05;14.27;;;9.73;;
15699;SDS011;7950;42.744;23.174;2023-04-21T02:22:35;18.13;;;10.73;;
15699;SDS011;7950;42.744;23.174;2023-04-21T02:25:06;14.47;;;10.40;;
15699;SDS011;7950;42.744;23.174;2023-04-21T02:27:35;14.40;;;10.57;;
15699;SDS011;7950;42.744;23.174;2023-04-21T02:30:04;11.33;;;9.33;;
15699;SDS011;7950;42.744;23.174;2023-04-21T02:32:34;15.60;;;10.90;;
15699;SDS011;7950;42.744;23.174;2023-04-21T02:35:03;12.33;;;9.87;;
15699;SDS011;7950;42.744;23.174;2023-04-21T02:37:33;13.57;;;9.70;;
15699;SDS011;7950;42.744;23.174;2023-04-21T02:40:04;13.10;;;9.33;;
15699;SDS011;7950;42.744;23.174;2023-04-21T02:42:33;13.07;;;9.37;;
15699;SDS011;7950;42.744;23.174;2023-04-21T02:45:02;12.43;;;8.37;;
15699;SDS011;7950;42.744;23.174;2023-04-21T02:47:32;11.50;;;9.30;;
15699;SDS011;7950;42.744;23.174;2023-04-21T02:50:00;13.73;;;9.53;;
15699;SDS011;7950;42.744;23.174;2023-04-21T02:52:29;12.23;;;9.23;;
15699;SDS011;7950;42.744;23.174;2023-04-21T02:55:04;11.50;;;9.13;;
15699;SDS011;7950;42.744;23.174;2023-04-21T02:57:33;10.90;;;8.93;;
15699;SDS011;7950;42.744;23.174;2023-04-21T03:00:02;15.27;;;9.20;;
15699;SDS011;7950;42.744;23.174;2023-04-21T03:02:33;13.10;;;9.73;;
15699;SDS011;7950;42.744;23.174;2023-04-21T03:05:01;12.87;;;9.50;;
15699;SDS011;7950;42.744;23.174;2023-04-21T03:07:30;12.60;;;9.67;;
15699;SDS011;7950;42.744;23.174;2023-04-21T03:09:59;10.47;;;9.23;;
15699;SDS011;7950;42.744;23.174;2023-04-21T03:12:28;14.20;;;9.73;;
15699;SDS011;7950;42.744;23.174;2023-04-21T03:14:57;15.07;;;9.50;;
15699;SDS011;7950;42.744;23.174;2023-04-21T03:17:26;16.40;;;10.43;;
15699;SDS011;7950;42.744;23.174;2023-04-21T03:19:58;18.17;;;9.60;;
15699;SDS011;7950;42.744;23.174;2023-04-21T03:22:26;15.97;;;10.03;;
15699;SDS011;7950;42.744;23.174;2023-04-21T03:24:55;13.57;;;9.57;;
15699;SDS011;7950;42.744;23.174;2023-04-21T03:27:23;14.23;;;9.73;;
15699;SDS011;7950;42.744;23.174;2023-04-21T03:29:53;11.80;;;8.87;;
15699;SDS011;7950;42.744;23.174;2023-04-21T03:32:22;12.80;;;9.00;;
15699;SDS011;7950;42.744;23.174;2023-04-21T03:34:50;12.20;;;9.63;;
15699;SDS011;7950;42.744;23.174;2023-04-21T03:37:19;11.50;;;9.03;;
15699;SDS011;7950;42.744;23.174;2023-04-21T03:39:47;14.40;;;10.07;;
15699;SDS011;7950;42.744;23.174;2023-04-21T03:42:16;11.53;;;9.60;;
15699;SDS011;7950;42.744;23.174;2023-04-21T03:44:44;12.43;;;9.90;;
15699;SDS011;7950;42.744;23.174;2023-04-21T03:47:15;14.00;;;10.23;;
15699;SDS011;7950;42.744;23.174;2023-04-21T03:49:44;12.60;;;9.87;;
15699;SDS011;7950;42.744;23.174;2023-04-21T03:52:12;14.00;;;10.47;;
15699;SDS011;7950;42.744;23.174;2023-04-21T03:54:40;14.97;;;10.10;;
15699;SDS011;7950;42.744;23.174;2023-04-21T03:57:09;15.80;;;10.83;;
15699;SDS011;7950;42.744;23.174;2023-04-21T03:59:37;15.43;;;10.50;;
15699;SDS011;7950;42.744;23.174;2023-04-21T04:02:06;14.50;;;10.07;;
15699;SDS011;7950;42.744;23.174;2023-04-21T04:04:36;13.47;;;10.40;;
15699;SDS011;7950;42.744;23.174;2023-04-21T04:09:59;14.20;;;10.47;;
15699;SDS011;7950;42.744;23.174;2023-04-21T04:12:27;14.77;;;10.80;;
15699;SDS011;7950;42.744;23.174;2023-04-21T04:14:56;13.57;;;10.33;;
15699;SDS011;7950;42.744;23.174;2023-04-21T04:17:25;13.33;;;10.80;;
15699;SDS011;7950;42.744;23.174;2023-04-21T04:19:54;13.27;;;9.77;;
15699;SDS011;7950;42.744;23.174;2023-04-21T04:22:23;15.13;;;10.67;;
15699;SDS011;7950;42.744;23.174;2023-04-21T04:24:51;14.80;;;10.80;;
15699;SDS011;7950;42.744;23.174;2023-04-21T04:27:20;14.93;;;10.30;;
15699;SDS011;7950;42.744;23.174;2023-04-21T04:29:49;11.13;;;9.33;;
15699;SDS011;7950;42.744;23.174;2023-04-21T04:32:18;13.23;;;9.50;;
15699;SDS011;7950;42.744;23.174;2023-04-21T04:34:47;13.17;;;9.87;;
15699;SDS011;7950;42.744;23.174;2023-04-21T04:37:19;13.67;;;10.50;;
15699;SDS011;7950;42.744;23.174;2023-04-21T04:39:47;15.20;;;9.63;;
15699;SDS011;7950;42.744;23.174;2023-04-21T04:42:19;13.27;;;9.87;;
15699;SDS011;7950;42.744;23.174;2023-04-21T04:44:47;13.20;;;10.03;;
15699;SDS011;7950;42.744;23.174;2023-04-21T04:50:18;12.13;;;9.63;;
15699;SDS011;7950;42.744;23.174;2023-04-21T04:52:48;14.57;;;9.80;;
15699;SDS011;7950;42.744;23.174;2023-04-21T04:55:22;15.90;;;10.50;;
15699;SDS011;7950;42.744;23.174;2023-04-21T04:57:51;13.90;;;9.20;;
15699;SDS011;7950;42.744;23.174;2023-04-21T05:00:21;11.40;;;9.03;;
15699;SDS011;7950;42.744;23.174;2023-04-21T05:02:50;16.40;;;11.57;;
15699;SDS011;7950;42.744;23.174;2023-04-21T05:05:18;19.33;;;11.80;;
15699;SDS011;7950;42.744;23.174;2023-04-21T05:07:51;14.70;;;10.00;;
15699;SDS011;7950;42.744;23.174;2023-04-21T05:10:20;13.70;;;9.70;;
15699;SDS011;7950;42.744;23.174;2023-04-21T05:12:48;17.30;;;11.30;;
15699;SDS011;7950;42.744;23.174;2023-04-21T05:15:17;17.13;;;11.87;;
15699;SDS011;7950;42.744;23.174;2023-04-21T05:17:45;18.67;;;12.70;;
15699;SDS011;7950;42.744;23.174;2023-04-21T05:20:14;15.83;;;10.97;;
15699;SDS011;7950;42.744;23.174;2023-04-21T05:25:37;15.53;;;11.43;;
15699;SDS011;7950;42.744;23.174;2023-04-21T05:28:05;17.17;;;11.03;;
15699;SDS011;7950;42.744;23.174;2023-04-21T05:30:34;14.33;;;10.87;;
15699;SDS011;7950;42.744;23.174;2023-04-21T05:33:02;14.50;;;10.70;;
15699;SDS011;7950;42.744;23.174;2023-04-21T05:35:31;14.43;;;10.83;;
15699;SDS011;7950;42.744;23.174;2023-04-21T05:38:03;14.20;;;9.67;;
15699;SDS011;7950;42.744;23.174;2023-04-21T05:40:33;15.00;;;10.27;;
15699;SDS011;7950;42.744;23.174;2023-04-21T05:43:02;14.47;;;9.73;;
15699;SDS011;7950;42.744;23.174;2023-04-21T05:45:30;11.83;;;9.63;;
15699;SDS011;7950;42.744;23.174;2023-04-21T05:47:59;10.07;;;8.80;;
15699;SDS011;7950;42.744;23.174;2023-04-21T05:50:27;11.43;;;8.43;;
15699;SDS011;7950;42.744;23.174;2023-04-21T05:52:59;10.20;;;8.30;;
15699;SDS011;7950;42.744;23.174;2023-04-21T05:55:28;9.60;;;7.70;;
15699;SDS011;7950;42.744;23.174;2023-04-21T05:57:58;11.93;;;8.40;;
15699;SDS011;7950;42.744;23.174;2023-04-21T06:00:27;8.90;;;7.90;;
15699;SDS011;7950;42.744;23.174;2023-04-21T06:02:55;11.57;;;8.57;;
15699;SDS011;7950;42.744;23.174;2023-04-21T06:05:24;11.30;;;8.83;;
15699;SDS011;7950;42.744;23.174;2023-04-21T06:07:53;10.97;;;7.63;;
15699;SDS011;7950;42.744;23.174;2023-04-21T06:10:21;11.63;;;8.07;;
15699;SDS011;7950;42.744;23.174;2023-04-21T06:12:50;8.77;;;7.83;;
15699;SDS011;7950;42.744;23.174;2023-04-21T06:15:19;10.37;;;8.40;;
15699;SDS011;7950;42.744;23.174;2023-04-21T06:17:51;9.07;;;8.00;;
15699;SDS011;7950;42.744;23.174;2023-04-21T06:20:21;9.30;;;7.87;;
15699;SDS011;7950;42.744;23.174;2023-04-21T06:22:49;9.80;;;7.80;;
15699;SDS011;7950;42.744;23.174;2023-04-21T06:25:17;9.27;;;7.80;;
15699;SDS011;7950;42.744;23.174;2023-04-21T06:31:03;11.30;;;8.00;;
15699;SDS011;7950;42.744;23.174;2023-04-21T06:33:34;8.03;;;7.07;;
15699;SDS011;7950;42.744;23.174;2023-04-21T06:36:03;7.77;;;6.87;;
15699;SDS011;7950;42.744;23.174;2023-04-21T06:38:33;10.40;;;8.20;;
15699;SDS011;7950;42.744;23.174;2023-04-21T06:41:01;8.03;;;7.20;;
15699;SDS011;7950;42.744;23.174;2023-04-21T06:43:30;8.77;;;7.67;;
15699;SDS011;7950;42.744;23.174;2023-04-21T06:45:58;9.10;;;7.40;;
15699;SDS011;7950;42.744;23.174;2023-04-21T06:48:28;10.10;;;7.00;;
15699;SDS011;7950;42.744;23.174;2023-04-21T06:50:57;9.10;;;7.50;;
15699;SDS011;7950;42.744;23.174;2023-04-21T06:53:28;10.07;;;7.33;;
15699;SDS011;7950;42.744;23.174;2023-04-21T06:55:56;10.30;;;7.30;;
15699;SDS011;7950;42.744;23.174;2023-04-21T06:58:25;7.87;;;6.90;;
15699;SDS011;7950;42.744;23.174;2023-04-21T07:00:53;8.53;;;7.00;;
15699;SDS011;7950;42.744;23.174;2023-04-21T07:03:22;8.30;;;7.00;;
15699;SDS011;7950;42.744;23.174;2023-04-21T07:05:52;11.03;;;7.67;;
15699;SDS011;7950;42.744;23.174;2023-04-21T07:08:20;8.20;;;6.63;;
15699;SDS011;7950;42.744;23.174;2023-04-21T07:10:49;7.87;;;7.00;;
15699;SDS011;7950;42.744;23.174;2023-04-21T07:13:17;8.70;;;7.17;;
15699;SDS011;7950;42.744;23.174;2023-04-21T07:15:46;8.40;;;6.47;;
15699;SDS011;7950;42.744;23.174;2023-04-21T07:18:15;10.40;;;6.50;;
15699;SDS011;7950;42.744;23.174;2023-04-21T07:20:44;7.03;;;6.33;;
15699;SDS011;7950;42.744;23.174;2023-04-21T07:23:14;7.67;;;6.13;;
15699;SDS011;7950;42.744;23.174;2023-04-21T07:25:42;7.53;;;6.57;;
15699;SDS011;7950;42.744;23.174;2023-04-21T07:28:11;8.60;;;6.63;;
15699;SDS011;7950;42.744;23.174;2023-04-21T07:33:31;10.33;;;6.83;;
15699;SDS011;7950;42.744;23.174;2023-04-21T07:36:00;8.43;;;6.40;;
15699;SDS011;7950;42.744;23.174;2023-04-21T07:41:23;9.70;;;6.50;;
15699;SDS011;7950;42.744;23.174;2023-04-21T07:43:52;6.83;;;6.13;;
15699;SDS011;7950;42.744;23.174;2023-04-21T07:46:21;8.57;;;6.43;;
15699;SDS011;7950;42.744;23.174;2023-04-21T07:48:57;8.17;;;6.27;;
15699;SDS011;7950;42.744;23.174;2023-04-21T07:51:29;8.00;;;6.53;;
15699;SDS011;7950;42.744;23.174;2023-04-21T07:53:59;11.07;;;6.10;;
15699;SDS011;7950;42.744;23.174;2023-04-21T07:56:28;7.07;;;5.77;;
15699;SDS011;7950;42.744;23.174;2023-04-21T08:01:49;9.30;;;6.00;;
15699;SDS011;7950;42.744;23.174;2023-04-21T08:04:18;6.10;;;5.50;;
15699;SDS011;7950;42.744;23.174;2023-04-21T08:06:47;7.70;;;5.93;;
15699;SDS011;7950;42.744;23.174;2023-04-21T08:09:20;8.67;;;5.97;;
15699;SDS011;7950;42.744;23.174;2023-04-21T08:11:48;5.90;;;5.20;;
15699;SDS011;7950;42.744;23.174;2023-04-21T08:14:17;8.03;;;5.73;;
15699;SDS011;7950;42.744;23.174;2023-04-21T08:16:46;6.87;;;5.53;;
15699;SDS011;7950;42.744;23.174;2023-04-21T08:19:15;6.00;;;5.40;;
15699;SDS011;7950;42.744;23.174;2023-04-21T08:21:44;5.90;;;4.97;;
15699;SDS011;7950;42.744;23.174;2023-04-21T08:24:12;7.57;;;5.50;;
15699;SDS011;7950;42.744;23.174;2023-04-21T08:26:42;6.00;;;5.40;;
15699;SDS011;7950;42.744;23.174;2023-04-21T08:29:11;6.73;;;5.60;;
15699;SDS011;7950;42.744;23.174;2023-04-21T08:31:39;5.63;;;5.03;;
15699;SDS011;7950;42.744;23.174;2023-04-21T08:34:08;7.10;;;6.33;;
15699;SDS011;7950;42.744;23.174;2023-04-21T08:36:43;6.17;;;5.30;;
15699;SDS011;7950;42.744;23.174;2023-04-21T08:39:13;6.67;;;5.60;;
15699;SDS011;7950;42.744;23.174;2023-04-21T08:41:44;8.37;;;5.60;;
15699;SDS011;7950;42.744;23.174;2023-04-21T08:44:14;6.20;;;5.00;;
15699;SDS011;7950;42.744;23.174;2023-04-21T08:46:45;7.47;;;5.57;;
15699;SDS011;7950;42.744;23.174;2023-04-21T08:49:17;5.93;;;5.17;;
15699;SDS011;7950;42.744;23.174;2023-04-21T08:54:40;6.27;;;5.40;;
15699;SDS011;7950;42.744;23.174;2023-04-21T08:57:10;9.17;;;5.20;;
15699;SDS011;7950;42.744;23.174;2023-04-21T08:59:41;5.60;;;4.50;;
15699;SDS011;7950;42.744;23.174;2023-04-21T09:02:11;6.60;;;4.73;;
15699;SDS011;7950;42.744;23.174;2023-04-21T09:04:42;5.97;;;5.07;;
15699;SDS011;7950;42.744;23.174;2023-04-21T09:07:28;6.97;;;4.63;;
15699;SDS011;7950;42.744;23.174;2023-04-21T09:10:11;12.90;;;5.13;;
15699;SDS011;7950;42.744;23.174;2023-04-21T09:12:41;7.57;;;5.47;;
15699;SDS011;7950;42.744;23.174;2023-04-21T09:15:19;7.07;;;4.63;;
15699;SDS011;7950;42.744;23.174;2023-04-21T09:17:49;9.60;;;4.83;;
15699;SDS011;7950;42.744;23.174;2023-04-21T09:20:23;7.73;;;4.87;;
15699;SDS011;7950;42.744;23.174;2023-04-21T09:22:52;7.00;;;5.03;;
15699;SDS011;7950;42.744;23.174;2023-04-21T09:25:21;6.67;;;4.63;;
15699;SDS011;7950;42.744;23.174;2023-04-21T09:27:51;6.27;;;4.80;;
15699;SDS011;7950;42.744;23.174;2023-04-21T09:30:21;8.23;;;5.43;;
15699;SDS011;7950;42.744;23.174;2023-04-21T09:32:49;7.70;;;5.10;;
15699;SDS011;7950;42.744;23.174;2023-04-21T09:35:22;5.73;;;5.13;;
15699;SDS011;7950;42.744;23.174;2023-04-21T09:37:55;6.53;;;4.83;;
15699;SDS011;7950;42.744;23.174;2023-04-21T09:40:24;6.90;;;5.73;;
15699;SDS011;7950;42.744;23.174;2023-04-21T09:42:54;5.10;;;4.10;;
15699;SDS011;7950;42.744;23.174;2023-04-21T09:45:22;5.57;;;5.00;;
15699;SDS011;7950;42.744;23.174;2023-04-21T09:48:05;6.27;;;4.47;;
15699;SDS011;7950;42.744;23.174;2023-04-21T09:50:38;7.73;;;5.30;;
15699;SDS011;7950;42.744;23.174;2023-04-21T09:53:27;7.50;;;5.83;;
15699;SDS011;7950;42.744;23.174;2023-04-21T09:56:00;7.10;;;4.73;;
15699;SDS011;7950;42.744;23.174;2023-04-21T09:58:35;6.47;;;5.63;;
15699;SDS011;7950;42.744;23.174;2023-04-21T10:01:13;5.93;;;5.20;;
15699;SDS011;7950;42.744;23.174;2023-04-21T10:03:42;6.57;;;5.03;;
15699;SDS011;7950;42.744;23.174;2023-04-21T10:06:14;6.93;;;5.30;;
15699;SDS011;7950;42.744;23.174;2023-04-21T10:09:21;10.27;;;4.93;;
15699;SDS011;7950;42.744;23.174;2023-04-21T10:11:54;5.33;;;4.83;;
15699;SDS011;7950;42.744;23.174;2023-04-21T10:14:25;6.00;;;4.93;;
15699;SDS011;7950;42.744;23.174;2023-04-21T10:16:58;7.97;;;4.53;;
15699;SDS011;7950;42.744;23.174;2023-04-21T10:19:32;7.17;;;4.30;;
15699;SDS011;7950;42.744;23.174;2023-04-21T10:22:05;6.87;;;4.17;;
15699;SDS011;7950;42.744;23.174;2023-04-21T10:24:36;4.60;;;4.20;;
15699;SDS011;7950;42.744;23.174;2023-04-21T10:27:08;8.77;;;4.97;;
15699;SDS011;7950;42.744;23.174;2023-04-21T10:29:39;5.70;;;4.60;;
15699;SDS011;7950;42.744;23.174;2023-04-21T10:32:38;8.33;;;5.20;;
15699;SDS011;7950;42.744;23.174;2023-04-21T10:35:08;5.07;;;3.97;;
15699;SDS011;7950;42.744;23.174;2023-04-21T10:37:38;6.57;;;4.43;;
15699;SDS011;7950;42.744;23.174;2023-04-21T10:43:05;5.47;;;4.50;;
15699;SDS011;7950;42.744;23.174;2023-04-21T10:46:31;6.10;;;4.50;;
15699;SDS011;7950;42.744;23.174;2023-04-21T10:49:05;6.00;;;4.10;;
15699;SDS011;7950;42.744;23.174;2023-04-21T10:54:38;4.90;;;4.00;;
15699;SDS011;7950;42.744;23.174;2023-04-21T10:57:12;6.87;;;4.40;;
15699;SDS011;7950;42.744;23.174;2023-04-21T10:59:43;7.77;;;4.37;;
15699;SDS011;7950;42.744;23.174;2023-04-21T11:02:14;7.77;;;4.50;;
15699;SDS011;7950;42.744;23.174;2023-04-21T11:04:48;7.37;;;4.60;;
15699;SDS011;7950;42.744;23.174;2023-04-21T11:07:19;7.00;;;4.20;;
15699;SDS011;7950;42.744;23.174;2023-04-21T11:09:55;5.67;;;4.40;;
15699;SDS011;7950;42.744;23.174;2023-04-21T11:12:26;5.40;;;3.97;;
15699;SDS011;7950;42.744;23.174;2023-04-21T11:14:56;7.77;;;4.30;;
15699;SDS011;7950;42.744;23.174;2023-04-21T11:17:26;5.37;;;4.87;;
15699;SDS011;7950;42.744;23.174;2023-04-21T11:19:55;8.63;;;4.33;;
15699;SDS011;7950;42.744;23.174;2023-04-21T11:22:24;6.37;;;4.43;;
15699;SDS011;7950;42.744;23.174;2023-04-21T11:24:54;9.07;;;4.47;;
15699;SDS011;7950;42.744;23.174;2023-04-21T11:27:25;4.77;;;3.70;;
15699;SDS011;7950;42.744;23.174;2023-04-21T11:29:56;4.70;;;4.17;;
15699;SDS011;7950;42.744;23.174;2023-04-21T11:32:26;3.97;;;3.43;;
15699;SDS011;7950;42.744;23.174;2023-04-21T11:34:55;13.33;;;4.13;;
15699;SDS011;7950;42.744;23.174;2023-04-21T11:37:24;3.90;;;3.50;;
15699;SDS011;7950;42.744;23.174;2023-04-21T11:39:57;10.13;;;3.83;;
15699;SDS011;7950;42.744;23.174;2023-04-21T11:42:26;5.00;;;4.30;;
15699;SDS011;7950;42.744;23.174;2023-04-21T11:44:55;5.20;;;3.90;;
15699;SDS011;7950;42.744;23.174;2023-04-21T11:47:25;5.83;;;4.17;;
15699;SDS011;7950;42.744;23.174;2023-04-21T11:49:56;8.13;;;4.37;;
15699;SDS011;7950;42.744;23.174;2023-04-21T11:52:26;6.73;;;4.57;;
15699;SDS011;7950;42.744;23.174;2023-04-21T11:54:59;7.03;;;5.10;;
15699;SDS011;7950;42.744;23.174;2023-04-21T11:57:29;5.87;;;5.23;;
15699;SDS011;7950;42.744;23.174;2023-04-21T12:02:57;4.80;;;4.30;;
15699;SDS011;7950;42.744;23.174;2023-04-21T12:05:33;5.67;;;4.50;;
15699;SDS011;7950;42.744;23.174;2023-04-21T12:08:02;11.33;;;5.13;;
15699;SDS011;7950;42.744;23.174;2023-04-21T12:10:31;5.33;;;4.70;;
15699;SDS011;7950;42.744;23.174;2023-04-21T12:13:00;5.47;;;4.37;;
15699;SDS011;7950;42.744;23.174;2023-04-21T12:15:29;5.90;;;4.03;;
15699;SDS011;7950;42.744;23.174;2023-04-21T12:17:59;5.87;;;4.20;;
15699;SDS011;7950;42.744;23.174;2023-04-21T12:20:27;9.60;;;4.47;;
15699;SDS011;7950;42.744;23.174;2023-04-21T12:22:57;8.23;;;4.47;;
15699;SDS011;7950;42.744;23.174;2023-04-21T12:25:26;4.93;;;4.00;;
15699;SDS011;7950;42.744;23.174;2023-04-21T12:27:56;6.50;;;4.50;;
15699;SDS011;7950;42.744;23.174;2023-04-21T12:30:25;11.07;;;4.53;;
15699;SDS011;7950;42.744;23.174;2023-04-21T12:32:54;6.80;;;4.47;;
15699;SDS011;7950;42.744;23.174;2023-04-21T12:38:17;4.73;;;4.20;;
15699;SDS011;7950;42.744;23.174;2023-04-21T12:40:46;5.53;;;4.10;;
15699;SDS011;7950;42.744;23.174;2023-04-21T12:43:15;5.10;;;4.50;;
15699;SDS011;7950;42.744;23.174;2023-04-21T12:45:43;7.23;;;4.50;;
15699;SDS011;7950;42.744;23.174;2023-04-21T12:48:12;4.30;;;3.60;;
15699;SDS011;7950;42.744;23.174;2023-04-21T12:50:41;4.40;;;4.00;;
15699;SDS011;7950;42.744;23.174;2023-04-21T12:53:10;4.83;;;4.17;;
15699;SDS011;7950;42.744;23.174;2023-04-21T12:55:39;4.93;;;4.07;;
15699;SDS011;7950;42.744;23.174;2023-04-21T13:01:16;7.13;;;4.27;;
15699;SDS011;7950;42.744;23.174;2023-04-21T13:03:44;6.00;;;4.40;;
15699;SDS011;7950;42.744;23.174;2023-04-21T13:06:13;5.17;;;3.83;;
15699;SDS011;7950;42.744;23.174;2023-04-21T13:08:43;4.67;;;4.13;;
15699;SDS011;7950;42.744;23.174;2023-04-21T13:11:11;5.77;;;4.50;;
15699;SDS011;7950;42.744;23.174;2023-04-21T13:13:40;4.80;;;4.30;;
15699;SDS011;7950;42.744;23.174;2023-04-21T13:16:08;5.17;;;3.80;;
15699;SDS011;7950;42.744;23.174;2023-04-21T13:18:37;5.77;;;4.50;;
15699;SDS011;7950;42.744;23.174;2023-04-21T13:21:06;5.37;;;4.87;;
15699;SDS011;7950;42.744;23.174;2023-04-21T13:23:35;9.17;;;5.40;;
15699;SDS011;7950;42.744;23.174;2023-04-21T13:26:05;4.67;;;4.23;;
15699;SDS011;7950;42.744;23.174;2023-04-21T13:28:33;4.80;;;4.40;;
15699;SDS011;7950;42.744;23.174;2023-04-21T13:31:02;5.43;;;4.33;;
15699;SDS011;7950;42.744;23.174;2023-04-21T13:33:32;5.37;;;4.70;;
15699;SDS011;7950;42.744;23.174;2023-04-21T13:36:01;4.53;;;4.10;;
15699;SDS011;7950;42.744;23.174;2023-04-21T13:38:36;7.60;;;5.00;;
15699;SDS011;7950;42.744;23.174;2023-04-21T13:41:07;10.93;;;5.03;;
15699;SDS011;7950;42.744;23.174;2023-04-21T13:43:36;5.83;;;4.90;;
15699;SDS011;7950;42.744;23.174;2023-04-21T13:46:04;17.97;;;5.63;;
15699;SDS011;7950;42.744;23.174;2023-04-21T13:48:34;7.63;;;4.87;;
15699;SDS011;7950;42.744;23.174;2023-04-21T13:51:02;5.90;;;4.80;;
15699;SDS011;7950;42.744;23.174;2023-04-21T13:53:44;7.67;;;4.70;;
15699;SDS011;7950;42.744;23.174;2023-04-21T13:56:14;7.37;;;4.87;;
15699;SDS011;7950;42.744;23.174;2023-04-21T14:01:32;6.33;;;4.20;;
15699;SDS011;7950;42.744;23.174;2023-04-21T14:04:01;7.43;;;5.27;;
15699;SDS011;7950;42.744;23.174;2023-04-21T14:06:29;9.40;;;4.87;;
15699;SDS011;7950;42.744;23.174;2023-04-21T14:08:58;7.23;;;4.60;;
15699;SDS011;7950;42.744;23.174;2023-04-21T14:11:28;7.40;;;5.33;;
15699;SDS011;7950;42.744;23.174;2023-04-21T14:13:56;7.30;;;5.20;;
15699;SDS011;7950;42.744;23.174;2023-04-21T14:16:30;6.97;;;4.60;;
15699;SDS011;7950;42.744;23.174;2023-04-21T14:18:58;8.60;;;5.17;;
15699;SDS011;7950;42.744;23.174;2023-04-21T14:21:27;7.13;;;5.10;;
15699;SDS011;7950;42.744;23.174;2023-04-21T14:23:56;5.70;;;4.53;;
15699;SDS011;7950;42.744;23.174;2023-04-21T14:26:24;22.90;;;6.20;;
15699;SDS011;7950;42.744;23.174;2023-04-21T14:28:55;8.33;;;5.27;;
15699;SDS011;7950;42.744;23.174;2023-04-21T14:31:25;8.70;;;5.60;;
15699;SDS011;7950;42.744;23.174;2023-04-21T14:33:53;8.53;;;5.27;;
15699;SDS011;7950;42.744;23.174;2023-04-21T14:36:22;8.97;;;5.70;;
15699;SDS011;7950;42.744;23.174;2023-04-21T14:38:50;8.80;;;5.43;;
15699;SDS011;7950;42.744;23.174;2023-04-21T14:41:19;7.77;;;4.90;;
15699;SDS011;7950;42.744;23.174;2023-04-21T14:43:47;8.23;;;4.70;;
15699;SDS011;7950;42.744;23.174;2023-04-21T14:46:20;7.70;;;5.20;;
15699;SDS011;7950;42.744;23.174;2023-04-21T14:48:49;7.13;;;4.90;;
15699;SDS011;7950;42.744;23.174;2023-04-21T14:51:17;6.47;;;4.70;;
15699;SDS011;7950;42.744;23.174;2023-04-21T14:53:47;6.17;;;4.50;;
15699;SDS011;7950;42.744;23.174;2023-04-21T14:56:15;7.40;;;4.80;;
15699;SDS011;7950;42.744;23.174;2023-04-21T14:58:44;9.30;;;5.73;;
15699;SDS011;7950;42.744;23.174;2023-04-21T15:01:13;5.47;;;4.80;;
15699;SDS011;7950;42.744;23.174;2023-04-21T15:03:43;4.80;;;4.17;;
15699;SDS011;7950;42.744;23.174;2023-04-21T15:06:12;4.60;;;3.90;;
15699;SDS011;7950;42.744;23.174;2023-04-21T15:08:41;4.13;;;3.80;;
15699;SDS011;7950;42.744;23.174;2023-04-21T15:11:10;5.03;;;4.00;;
15699;SDS011;7950;42.744;23.174;2023-04-21T15:13:38;8.73;;;4.40;;
15699;SDS011;7950;42.744;23.174;2023-04-21T15:16:07;5.77;;;4.10;;
15699;SDS011;7950;42.744;23.174;2023-04-21T15:18:35;5.20;;;3.50;;
15699;SDS011;7950;42.744;23.174;2023-04-21T15:21:05;6.47;;;3.63;;
15699;SDS011;7950;42.744;23.174;2023-04-21T15:23:34;5.60;;;3.33;;
15699;SDS011;7950;42.744;23.174;2023-04-21T15:26:03;5.37;;;3.40;;
15699;SDS011;7950;42.744;23.174;2023-04-21T15:28:31;4.10;;;3.70;;
15699;SDS011;7950;42.744;23.174;2023-04-21T15:31:01;7.27;;;3.80;;
15699;SDS011;7950;42.744;23.174;2023-04-21T15:33:42;3.90;;;3.50;;
15699;SDS011;7950;42.744;23.174;2023-04-21T15:36:12;3.90;;;3.20;;
15699;SDS011;7950;42.744;23.174;2023-04-21T15:38:41;4.77;;;3.57;;
15699;SDS011;7950;42.744;23.174;2023-04-21T15:41:10;4.73;;;3.53;;
15699;SDS011;7950;42.744;23.174;2023-04-21T15:43:38;5.03;;;3.77;;